Time;durP1;ratioP1;P1;durP2;ratioP2;P2;SDS_P1;SDS_P2;PMS_P1;PMS_P2;Temp;Humidity;BMP_temperature;BMP_pressure;BME280_temperature;BME280_humidity;BME280_pressure;Samples;Min_cycle;Max_cycle;Signal;HPM_P1;HPM_P2
2022/10/15 00:00:25;;;;;;;48.47;31.17;;;12.40;99.90;;;;;;5112768;28;20503;-60
2022/10/15 00:02:53;;;;;;;55.78;32.22;;;12.40;99.90;;;;;;5113175;28;20460;-60
2022/10/15 00:05:21;;;;;;;54.38;32.33;;;12.40;99.90;;;;;;5112063;28;20059;-61
2022/10/15 00:07:48;;;;;;;51.47;32.55;;;12.40;99.90;;;;;;5112046;28;20052;-60
2022/10/15 00:10:16;;;;;;;51.97;31.80;;;12.40;99.90;;;;;;5133209;28;20048;-60
2022/10/15 00:12:42;;;;;;;49.88;31.73;;;12.40;99.90;;;;;;5133295;28;20391;-61
2022/10/15 00:15:11;;;;;;;48.90;32.35;;;12.40;99.90;;;;;;5115342;28;20059;-60
2022/10/15 00:17:38;;;;;;;55.58;33.05;;;12.40;99.90;;;;;;5114693;28;20096;-60
2022/10/15 00:20:09;;;;;;;50.70;31.75;;;12.40;99.90;;;;;;5133676;28;20047;-60
2022/10/15 00:22:37;;;;;;;49.50;32.58;;;12.40;99.90;;;;;;5133627;28;20490;-61
2022/10/15 00:25:05;;;;;;;51.17;31.10;;;12.40;99.90;;;;;;5133116;28;20047;-60
2022/10/15 00:27:31;;;;;;;54.42;32.13;;;12.40;99.90;;;;;;5133444;28;20047;-61
2022/10/15 00:29:59;;;;;;;53.80;31.98;;;12.40;99.90;;;;;;5133071;28;20047;-61
2022/10/15 00:32:25;;;;;;;47.70;30.38;;;12.40;99.90;;;;;;5132499;28;20047;-61
2022/10/15 00:34:52;;;;;;;53.00;31.65;;;12.40;99.90;;;;;;5115274;28;20059;-60
2022/10/15 00:37:21;;;;;;;55.05;31.25;;;12.40;99.90;;;;;;5103199;28;20044;-61
2022/10/15 00:39:48;;;;;;;52.70;32.05;;;12.40;99.90;;;;;;5094330;28;20101;-61
2022/10/15 00:42:15;;;;;;;49.58;32.55;;;12.40;99.90;;;;;;5112653;28;20515;-61
2022/10/15 00:44:54;;;;;;;51.13;32.58;;;12.40;99.90;;;;;;5112563;28;20051;-61
2022/10/15 00:47:29;;;;;;;51.85;30.98;;;12.30;99.90;;;;;;5112323;28;20089;-61
2022/10/15 00:50:00;;;;;;;51.85;31.70;;;12.30;99.90;;;;;;5112928;28;20080;-61
2022/10/15 00:52:37;;;;;;;51.88;31.92;;;12.40;99.90;;;;;;5127394;28;20047;-61
2022/10/15 00:55:10;;;;;;;46.90;31.25;;;12.30;99.90;;;;;;5133597;27;20092;-60
2022/10/15 00:57:37;;;;;;;48.40;32.42;;;12.40;99.90;;;;;;5136994;27;20467;-63
2022/10/15 01:00:08;;;;;;;50.97;30.88;;;12.40;99.90;;;;;;5118197;27;20494;-60
2022/10/15 01:02:35;;;;;;;50.40;32.22;;;12.40;99.90;;;;;;5118402;27;20055;-60
2022/10/15 01:05:03;;;;;;;49.28;31.75;;;12.40;99.90;;;;;;5117326;27;20749;-60
2022/10/15 01:07:31;;;;;;;50.53;32.40;;;12.40;99.90;;;;;;5136567;27;20043;-60
2022/10/15 01:09:58;;;;;;;56.17;33.90;;;12.40;99.90;;;;;;5136748;27;20050;-60
2022/10/15 01:12:37;;;;;;;46.13;31.23;;;12.30;99.90;;;;;;5118533;27;20436;-60
2022/10/15 01:15:13;;;;;;;51.40;31.58;;;12.30;99.90;;;;;;5136522;27;20047;-61
2022/10/15 01:17:45;;;;;;;45.78;31.05;;;12.30;99.90;;;;;;5136731;27;20043;-61
2022/10/15 01:20:46;;;;;;;47.00;32.58;;;12.30;99.90;;;;;;5123711;27;20538;-60
2022/10/15 01:23:52;;;;;;;50.35;32.03;;;12.30;99.90;;;;;;5115649;28;20047;-61
2022/10/15 01:26:50;;;;;;;47.65;31.20;;;12.30;99.90;;;;;;5091709;28;20495;-60
2022/10/15 01:29:32;;;;;;;53.40;30.90;;;12.30;99.90;;;;;;5107486;28;20059;-61
2022/10/15 01:32:07;;;;;;;48.85;29.95;;;12.20;99.90;;;;;;5115547;27;20093;-61
2022/10/15 01:34:41;;;;;;;50.40;30.92;;;12.20;99.90;;;;;;5115963;28;20079;-61
2022/10/15 01:37:11;;;;;;;46.40;29.75;;;12.20;99.90;;;;;;5115368;28;20080;-59
2022/10/15 01:39:42;;;;;;;48.85;31.08;;;12.20;99.90;;;;;;5115772;28;20052;-61
2022/10/15 01:42:17;;;;;;;53.15;32.20;;;12.20;99.90;;;;;;5113913;28;20135;-60
2022/10/15 01:44:50;;;;;;;45.08;29.20;;;12.30;99.90;;;;;;5115888;28;20047;-61
2022/10/15 01:47:24;;;;;;;42.13;29.58;;;12.20;99.90;;;;;;5114691;28;20492;-60
2022/10/15 01:49:54;;;;;;;46.10;29.90;;;12.20;99.90;;;;;;5115421;28;20460;-61
2022/10/15 01:52:24;;;;;;;42.53;28.17;;;12.20;99.90;;;;;;5114208;28;20104;-61
2022/10/15 01:54:53;;;;;;;42.92;27.95;;;12.20;99.90;;;;;;5114727;28;20060;-61
2022/10/15 01:57:21;;;;;;;45.63;28.50;;;12.20;99.90;;;;;;5114844;28;20483;-61
2022/10/15 01:59:49;;;;;;;42.55;27.42;;;12.20;99.90;;;;;;5115201;28;20168;-60
2022/10/15 02:02:16;;;;;;;42.97;28.98;;;12.30;99.90;;;;;;5116093;27;20570;-61
2022/10/15 02:04:44;;;;;;;43.55;27.25;;;12.30;99.90;;;;;;5117425;27;20086;-61
2022/10/15 02:07:16;;;;;;;48.90;29.35;;;12.30;99.90;;;;;;5116813;27;20100;-61
2022/10/15 02:09:49;;;;;;;43.28;28.42;;;12.20;99.90;;;;;;5117357;27;20062;-61
2022/10/15 02:12:31;;;;;;;42.25;27.80;;;12.20;99.90;;;;;;5135421;27;20459;-61
2022/10/15 02:15:03;;;;;;;46.72;28.20;;;12.20;99.90;;;;;;5116628;27;20141;-61
2022/10/15 02:17:35;;;;;;;46.30;28.00;;;12.20;99.90;;;;;;5114217;28;20483;-62
2022/10/15 02:20:11;;;;;;;48.65;28.10;;;12.20;99.90;;;;;;5114917;28;20052;-61
2022/10/15 02:22:44;;;;;;;44.53;28.27;;;12.20;99.90;;;;;;5114768;28;20048;-61
2022/10/15 02:25:15;;;;;;;49.63;28.35;;;12.20;99.90;;;;;;5096080;28;20059;-61
2022/10/15 02:27:44;;;;;;;44.35;27.25;;;12.20;99.90;;;;;;5115135;28;20041;-61
2022/10/15 02:30:12;;;;;;;47.60;28.13;;;12.10;99.90;;;;;;5096915;28;20510;-61
2022/10/15 02:32:41;;;;;;;42.42;27.73;;;12.20;99.90;;;;;;5096102;28;20552;-61
2022/10/15 02:35:11;;;;;;;44.67;27.65;;;12.10;99.90;;;;;;5096637;28;20052;-60
2022/10/15 02:37:44;;;;;;;39.70;26.15;;;12.20;99.90;;;;;;5114383;28;20047;-60
2022/10/15 02:40:12;;;;;;;40.00;25.65;;;12.10;99.90;;;;;;5096144;28;20116;-60
2022/10/15 02:42:38;;;;;;;41.45;26.73;;;12.20;99.90;;;;;;5114542;28;20051;-60
2022/10/15 02:45:07;;;;;;;42.65;27.63;;;12.20;99.90;;;;;;5114951;28;20115;-60
2022/10/15 02:47:33;;;;;;;40.88;27.63;;;12.20;99.90;;;;;;5095554;28;20089;-62
2022/10/15 02:50:00;;;;;;;43.97;27.27;;;12.10;99.90;;;;;;5114645;28;20507;-61
2022/10/15 02:52:29;;;;;;;41.45;27.05;;;12.10;99.90;;;;;;5114052;28;20366;-61
2022/10/15 02:54:55;;;;;;;42.42;27.63;;;12.20;99.90;;;;;;5114328;28;20052;-61
2022/10/15 02:57:22;;;;;;;43.75;26.88;;;12.20;99.90;;;;;;5114770;28;20055;-61
2022/10/15 02:59:49;;;;;;;42.55;27.95;;;12.10;99.90;;;;;;5112652;28;20051;-61
2022/10/15 03:02:16;;;;;;;42.78;28.42;;;12.10;99.90;;;;;;5112564;28;20492;-61
2022/10/15 03:04:43;;;;;;;42.65;27.90;;;12.10;99.90;;;;;;5113175;28;20487;-61
2022/10/15 03:07:10;;;;;;;47.95;27.70;;;12.10;99.90;;;;;;5113334;28;20479;-62
2022/10/15 03:09:38;;;;;;;40.25;27.55;;;12.10;99.90;;;;;;5112138;28;20115;-61
2022/10/15 03:12:05;;;;;;;39.55;26.02;;;12.10;99.90;;;;;;5095586;28;20055;-61
2022/10/15 03:14:32;;;;;;;39.38;26.00;;;12.10;99.90;;;;;;5113496;28;20092;-61
2022/10/15 03:16:59;;;;;;;43.60;25.90;;;12.10;99.90;;;;;;5113471;28;20553;-61
2022/10/15 03:19:26;;;;;;;40.22;26.58;;;12.10;99.90;;;;;;5112598;28;20392;-61
2022/10/15 03:21:53;;;;;;;42.58;26.95;;;12.10;99.90;;;;;;5095278;28;20483;-61
2022/10/15 03:24:20;;;;;;;41.13;27.05;;;12.10;99.90;;;;;;5113821;28;20461;-61
2022/10/15 03:26:48;;;;;;;40.50;25.60;;;12.10;99.90;;;;;;5100889;27;20054;-61
2022/10/15 03:29:15;;;;;;;40.10;26.58;;;12.20;99.90;;;;;;5132898;27;20043;-62
2022/10/15 03:31:42;;;;;;;47.45;26.90;;;12.20;99.90;;;;;;5114551;27;20059;-61
2022/10/15 03:34:09;;;;;;;38.70;26.33;;;12.20;99.90;;;;;;5135204;27;20054;-62
2022/10/15 03:36:36;;;;;;;40.33;27.48;;;12.10;99.90;;;;;;5114965;27;20134;-61
2022/10/15 03:39:03;;;;;;;44.80;27.52;;;12.10;99.90;;;;;;5133613;27;20124;-61
2022/10/15 03:41:30;;;;;;;38.30;24.83;;;12.10;99.90;;;;;;5133361;27;20058;-60
2022/10/15 03:44:02;;;;;;;45.97;26.38;;;12.10;99.90;;;;;;5115688;27;20047;-62
2022/10/15 03:46:29;;;;;;;38.60;24.77;;;12.10;99.90;;;;;;5133659;27;20083;-59
2022/10/15 03:48:56;;;;;;;42.58;27.02;;;12.10;99.90;;;;;;5115438;27;20058;-60
2022/10/15 03:51:23;;;;;;;39.42;25.13;;;12.20;99.90;;;;;;5115615;28;20054;-60
2022/10/15 03:53:49;;;;;;;36.50;24.98;;;12.10;99.90;;;;;;5134039;27;20054;-60
2022/10/15 03:56:16;;;;;;;40.22;26.92;;;12.10;99.90;;;;;;5114671;27;20059;-61
2022/10/15 03:58:43;;;;;;;39.47;25.52;;;12.10;99.90;;;;;;5133214;27;20088;-60
2022/10/15 04:01:13;;;;;;;43.00;26.70;;;12.10;99.90;;;;;;5133633;28;20445;-61
2022/10/15 04:03:41;;;;;;;39.60;25.33;;;12.10;99.90;;;;;;5115461;28;20513;-60
2022/10/15 04:06:08;;;;;;;44.30;26.15;;;12.20;99.90;;;;;;5115224;28;20410;-60
2022/10/15 04:08:35;;;;;;;41.72;26.73;;;12.20;99.90;;;;;;5094845;28;20043;-60
2022/10/15 04:11:02;;;;;;;44.08;25.52;;;12.20;99.90;;;;;;5112867;28;20044;-60
2022/10/15 04:13:29;;;;;;;46.13;27.25;;;12.20;99.90;;;;;;5095326;28;20440;-60
2022/10/15 04:15:56;;;;;;;45.08;27.38;;;12.20;99.90;;;;;;5112893;28;20043;-60
2022/10/15 04:18:24;;;;;;;43.88;26.45;;;12.20;99.90;;;;;;5112609;28;20486;-60
2022/10/15 04:20:51;;;;;;;45.28;26.65;;;12.20;99.90;;;;;;5094950;28;20055;-61
2022/10/15 04:23:18;;;;;;;45.38;27.08;;;12.20;99.90;;;;;;5113266;28;20051;-60
2022/10/15 04:25:46;;;;;;;45.15;27.73;;;12.20;99.90;;;;;;5094275;28;20059;-60
2022/10/15 04:28:12;;;;;;;50.58;29.00;;;12.20;99.90;;;;;;5113314;28;20445;-60
2022/10/15 04:30:39;;;;;;;50.63;30.08;;;12.20;99.90;;;;;;5115651;28;20164;-61
2022/10/15 04:33:06;;;;;;;56.72;30.85;;;12.20;99.90;;;;;;5116360;28;20093;-61
2022/10/15 04:35:34;;;;;;;46.53;28.27;;;12.10;99.90;;;;;;5128238;27;20111;-60
2022/10/15 04:38:01;;;;;;;56.15;29.92;;;12.10;99.90;;;;;;5118213;27;20051;-61
2022/10/15 04:40:28;;;;;;;54.08;30.00;;;12.10;99.90;;;;;;5137511;27;20170;-60
2022/10/15 04:42:55;;;;;;;51.75;30.88;;;12.10;99.90;;;;;;5136459;27;20046;-61
2022/10/15 04:45:22;;;;;;;55.13;30.20;;;12.10;99.90;;;;;;5136966;27;20063;-61
2022/10/15 04:47:49;;;;;;;46.45;29.17;;;12.10;99.90;;;;;;5119088;27;20059;-60
2022/10/15 04:50:16;;;;;;;53.05;32.10;;;12.10;99.90;;;;;;5107974;28;20463;-59
2022/10/15 04:52:44;;;;;;;49.28;29.30;;;12.10;99.90;;;;;;5116163;28;20048;-61
2022/10/15 04:55:11;;;;;;;50.38;30.88;;;12.10;99.90;;;;;;5116510;28;20057;-61
2022/10/15 04:57:38;;;;;;;50.45;29.85;;;12.10;99.90;;;;;;5097961;28;20109;-61
2022/10/15 05:00:06;;;;;;;54.47;30.83;;;12.20;99.90;;;;;;5116389;28;20043;-60
2022/10/15 05:02:33;;;;;;;50.55;30.00;;;12.10;99.90;;;;;;5116328;28;20052;-61
2022/10/15 05:05:00;;;;;;;53.50;30.90;;;12.10;99.90;;;;;;5126687;27;20054;-60
2022/10/15 05:07:26;;;;;;;49.42;29.98;;;12.10;99.90;;;;;;5117717;27;20043;-60
2022/10/15 05:09:55;;;;;;;48.65;28.48;;;12.10;99.90;;;;;;5136710;27;20043;-60
2022/10/15 05:12:21;;;;;;;47.85;28.80;;;12.00;99.90;;;;;;5136785;27;20051;-61
2022/10/15 05:14:48;;;;;;;48.10;29.88;;;12.10;99.90;;;;;;5136304;27;20494;-61
2022/10/15 05:17:15;;;;;;;48.45;30.13;;;12.00;99.90;;;;;;5118714;27;20486;-61
2022/10/15 05:19:42;;;;;;;44.95;28.17;;;12.00;99.90;;;;;;5137038;27;20047;-61
2022/10/15 05:22:09;;;;;;;46.67;29.08;;;12.00;99.90;;;;;;5135890;27;20051;-60
2022/10/15 05:24:36;;;;;;;47.95;29.27;;;12.00;99.90;;;;;;5118628;27;20543;-61
2022/10/15 05:27:04;;;;;;;50.55;30.10;;;12.00;99.90;;;;;;5117864;27;20871;-60
2022/10/15 05:29:31;;;;;;;45.50;29.23;;;12.00;99.90;;;;;;5118164;27;20107;-59
2022/10/15 05:31:58;;;;;;;45.20;28.10;;;12.00;99.90;;;;;;5134425;27;20143;-61
2022/10/15 05:34:27;;;;;;;47.38;29.17;;;12.00;99.90;;;;;;5114182;28;20052;-60
2022/10/15 05:36:54;;;;;;;47.92;29.25;;;12.00;99.90;;;;;;5115741;28;20101;-60
2022/10/15 05:39:21;;;;;;;43.80;28.13;;;11.90;99.90;;;;;;5115501;28;20101;-60
2022/10/15 05:41:48;;;;;;;43.55;27.83;;;11.90;99.90;;;;;;5112811;28;20112;-61
2022/10/15 05:44:16;;;;;;;47.55;28.27;;;11.90;99.90;;;;;;5114293;28;20059;-61
2022/10/15 05:46:43;;;;;;;47.22;28.00;;;11.90;99.90;;;;;;5114493;27;20063;-61
2022/10/15 05:49:10;;;;;;;46.85;28.42;;;11.90;99.90;;;;;;5109324;28;20044;-60
2022/10/15 05:51:38;;;;;;;43.83;27.98;;;11.90;99.90;;;;;;5112929;28;20104;-62
2022/10/15 05:54:04;;;;;;;45.53;28.73;;;11.90;99.90;;;;;;5095539;28;20051;-61
2022/10/15 05:56:31;;;;;;;50.67;29.33;;;11.90;99.90;;;;;;5099125;28;20547;-62
2022/10/15 05:58:58;;;;;;;49.67;30.15;;;11.90;99.90;;;;;;5112935;27;20072;-61
2022/10/15 06:01:26;;;;;;;47.33;29.23;;;11.90;99.90;;;;;;5106197;27;20051;-62
2022/10/15 06:03:53;;;;;;;48.75;29.20;;;11.90;99.90;;;;;;5096473;28;20044;-61
2022/10/15 06:06:22;;;;;;;52.50;32.00;;;11.90;99.90;;;;;;5098890;28;20051;-61
2022/10/15 06:08:50;;;;;;;52.53;31.83;;;11.90;99.90;;;;;;5095545;28;20508;-60
2022/10/15 06:11:17;;;;;;;47.35;31.27;;;11.90;99.90;;;;;;5094051;27;20044;-60
2022/10/15 06:13:45;;;;;;;54.88;31.02;;;11.90;99.90;;;;;;5114027;28;20043;-60
2022/10/15 06:16:13;;;;;;;53.95;33.17;;;11.90;99.90;;;;;;5093757;28;20085;-59
2022/10/15 06:18:42;;;;;;;53.40;32.42;;;11.90;99.90;;;;;;5112866;28;20092;-61
2022/10/15 06:21:11;;;;;;;50.65;33.10;;;11.90;99.90;;;;;;5115170;27;20047;-61
2022/10/15 06:23:38;;;;;;;50.88;33.13;;;11.90;99.90;;;;;;5097131;28;20047;-61
2022/10/15 06:26:06;;;;;;;57.33;36.17;;;11.90;99.90;;;;;;5115077;27;20039;-62
2022/10/15 06:28:34;;;;;;;59.28;34.35;;;11.90;99.90;;;;;;5116172;27;20039;-62
2022/10/15 06:31:01;;;;;;;60.67;33.45;;;12.00;99.90;;;;;;5111972;27;20089;-60
2022/10/15 06:33:29;;;;;;;55.45;34.90;;;11.90;99.90;;;;;;5112985;27;20055;-61
2022/10/15 06:36:01;;;;;;;57.15;33.97;;;12.00;99.90;;;;;;5112798;28;20108;-61
2022/10/15 06:38:28;;;;;;;54.67;33.28;;;12.00;99.90;;;;;;5095821;28;20146;-60
2022/10/15 06:40:55;;;;;;;63.00;35.72;;;12.00;99.90;;;;;;5117918;27;20055;-60
2022/10/15 06:43:22;;;;;;;59.30;35.97;;;12.00;99.90;;;;;;5101306;28;20129;-61
2022/10/15 06:45:49;;;;;;;60.10;34.72;;;12.00;99.90;;;;;;5101575;27;20051;-61
2022/10/15 06:48:16;;;;;;;59.15;35.05;;;12.00;99.90;;;;;;5111946;28;20482;-61
2022/10/15 06:50:43;;;;;;;56.53;35.05;;;12.00;99.90;;;;;;5097519;27;20048;-62
2022/10/15 06:53:11;;;;;;;62.15;35.75;;;12.10;99.90;;;;;;5097773;28;20056;-61
2022/10/15 06:55:38;;;;;;;63.20;35.20;;;12.10;99.90;;;;;;5099218;28;20055;-61
2022/10/15 06:58:05;;;;;;;58.88;34.83;;;12.00;99.90;;;;;;5112246;28;20047;-61
2022/10/15 07:00:32;;;;;;;58.85;35.97;;;12.10;99.90;;;;;;5094444;28;20449;-61
2022/10/15 07:03:03;;;;;;;61.33;35.55;;;12.10;99.90;;;;;;5094652;28;20063;-60
2022/10/15 07:05:30;;;;;;;55.13;34.65;;;12.10;99.90;;;;;;5116763;27;20495;-61
2022/10/15 07:07:57;;;;;;;58.05;34.63;;;12.10;99.90;;;;;;5112500;28;20058;-61
2022/10/15 07:10:27;;;;;;;60.75;36.67;;;12.20;99.90;;;;;;5111655;27;20050;-60
2022/10/15 07:12:54;;;;;;;61.72;36.05;;;12.20;99.90;;;;;;5111831;28;20213;-62
2022/10/15 07:15:22;;;;;;;61.67;34.00;;;12.20;99.90;;;;;;5113195;28;20109;-62
2022/10/15 07:17:49;;;;;;;62.92;36.08;;;12.20;99.90;;;;;;5097762;27;20552;-61
2022/10/15 07:20:17;;;;;;;60.90;36.20;;;12.20;99.90;;;;;;5121604;27;20048;-60
2022/10/15 07:22:44;;;;;;;62.58;36.55;;;12.30;99.90;;;;;;5112085;28;20048;-60
2022/10/15 07:25:11;;;;;;;60.88;37.03;;;12.30;99.90;;;;;;5112053;28;20047;-61
2022/10/15 07:27:39;;;;;;;63.22;38.45;;;12.30;99.90;;;;;;5109822;27;20059;-60
2022/10/15 07:30:08;;;;;;;68.65;39.83;;;12.30;99.90;;;;;;5133301;27;20047;-60
2022/10/15 07:32:35;;;;;;;68.63;37.95;;;12.40;99.90;;;;;;5121189;27;20043;-61
2022/10/15 07:35:02;;;;;;;64.18;36.67;;;12.40;99.90;;;;;;5093587;28;20059;-61
2022/10/15 07:37:29;;;;;;;55.58;34.10;;;12.40;99.90;;;;;;5112741;28;20128;-61
2022/10/15 07:39:56;;;;;;;57.80;35.65;;;12.40;99.90;;;;;;5096667;27;20054;-62
2022/10/15 07:42:22;;;;;;;58.53;35.35;;;12.40;99.90;;;;;;5108213;28;20097;-62
2022/10/15 07:44:51;;;;;;;57.00;35.53;;;12.50;99.90;;;;;;5094516;28;20051;-61
2022/10/15 07:47:17;;;;;;;58.38;34.20;;;12.50;99.90;;;;;;5112105;28;20101;-61
2022/10/15 07:49:45;;;;;;;53.42;34.25;;;12.70;99.90;;;;;;5099398;28;20452;-61
2022/10/15 07:52:11;;;;;;;52.58;31.98;;;12.90;99.90;;;;;;5133208;27;20070;-60
2022/10/15 07:54:38;;;;;;;49.53;30.73;;;13.30;99.90;;;;;;5112438;28;20063;-61
2022/10/15 07:57:06;;;;;;;51.33;31.10;;;14.00;99.90;;;;;;5092769;28;20051;-61
2022/10/15 07:59:33;;;;;;;44.10;28.00;;;14.60;99.90;;;;;;5092413;28;20091;-60
2022/10/15 08:02:02;;;;;;;44.22;28.17;;;14.90;99.90;;;;;;5103979;28;20055;-61
2022/10/15 08:04:29;;;;;;;44.33;28.10;;;15.10;99.90;;;;;;5105070;28;20486;-61
2022/10/15 08:06:56;;;;;;;38.88;26.05;;;15.20;99.90;;;;;;5114041;28;20112;-62
2022/10/15 08:09:23;;;;;;;43.05;27.98;;;15.40;99.90;;;;;;5111530;28;20047;-59
2022/10/15 08:11:50;;;;;;;40.55;27.33;;;15.40;99.90;;;;;;5111246;28;20054;-60
2022/10/15 08:14:17;;;;;;;46.63;27.90;;;15.00;99.90;;;;;;5101172;28;20059;-60
2022/10/15 08:16:44;;;;;;;41.50;27.73;;;14.80;99.90;;;;;;5098447;28;20065;-61
2022/10/15 08:19:16;;;;;;;47.63;28.80;;;14.50;99.90;;;;;;5111862;28;20077;-61
2022/10/15 08:21:43;;;;;;;43.35;27.98;;;14.40;99.90;;;;;;5102588;28;20112;-61
2022/10/15 08:24:10;;;;;;;43.05;29.20;;;14.10;99.90;;;;;;5124286;28;20054;-60
2022/10/15 08:26:37;;;;;;;46.95;30.40;;;14.00;99.90;;;;;;5093346;28;20583;-61
2022/10/15 08:29:04;;;;;;;51.78;30.80;;;13.90;99.90;;;;;;5097205;28;20215;-61
2022/10/15 08:31:31;;;;;;;40.92;28.75;;;13.90;99.90;;;;;;5115927;28;20410;-61
2022/10/15 08:33:59;;;;;;;43.08;29.30;;;13.90;99.90;;;;;;5108638;28;20048;-62
2022/10/15 08:36:28;;;;;;;50.47;30.13;;;14.00;99.90;;;;;;5093628;28;20100;-62
2022/10/15 08:38:55;;;;;;;39.53;27.58;;;14.10;99.90;;;;;;5094907;28;20101;-61
2022/10/15 08:41:28;;;;;;;39.45;26.45;;;14.10;99.90;;;;;;5113516;28;20052;-61
2022/10/15 08:43:55;;;;;;;45.55;29.88;;;14.10;99.90;;;;;;5113466;28;20097;-61
2022/10/15 08:46:28;;;;;;;41.03;27.42;;;14.00;99.90;;;;;;5111660;28;20088;-61
2022/10/15 08:48:58;;;;;;;47.85;29.92;;;13.90;99.90;;;;;;5111039;28;20055;-60
2022/10/15 08:51:30;;;;;;;42.50;28.23;;;13.90;99.90;;;;;;5110977;28;20058;-60
2022/10/15 08:54:00;;;;;;;49.60;30.45;;;13.90;99.90;;;;;;5112898;28;20077;-60
2022/10/15 08:56:30;;;;;;;43.38;27.90;;;13.80;99.90;;;;;;5112958;28;20054;-59
2022/10/15 08:59:04;;;;;;;50.60;28.92;;;13.80;99.90;;;;;;5111412;28;20055;-60
2022/10/15 09:01:37;;;;;;;44.60;29.63;;;13.90;99.90;;;;;;5111080;28;20112;-61
2022/10/15 09:04:19;;;;;;;44.30;29.60;;;13.90;99.90;;;;;;5113098;28;20051;-60
2022/10/15 09:06:53;;;;;;;49.90;31.92;;;14.00;99.90;;;;;;5110916;28;20063;-60
2022/10/15 09:09:29;;;;;;;46.08;30.30;;;14.00;99.90;;;;;;5112800;28;20048;-60
2022/10/15 09:12:06;;;;;;;45.45;30.10;;;14.10;99.90;;;;;;5111624;28;20051;-60
2022/10/15 09:14:37;;;;;;;47.33;31.42;;;14.10;99.90;;;;;;5110950;28;20109;-60
2022/10/15 09:17:14;;;;;;;48.13;30.77;;;14.20;99.90;;;;;;5112909;28;20084;-60
2022/10/15 09:19:44;;;;;;;50.00;31.73;;;14.20;99.90;;;;;;5115949;28;20089;-61
2022/10/15 09:22:17;;;;;;;46.72;32.00;;;14.20;99.90;;;;;;5115110;28;20059;-61
2022/10/15 09:24:43;;;;;;;45.97;29.50;;;14.20;99.90;;;;;;5116166;28;20052;-61
2022/10/15 09:27:28;;;;;;;42.38;28.15;;;14.20;99.90;;;;;;5114788;28;20411;-61
2022/10/15 09:30:03;;;;;;;46.63;28.25;;;14.10;99.90;;;;;;5116263;28;20051;-62
2022/10/15 09:32:35;;;;;;;42.38;28.02;;;14.10;99.90;;;;;;5116145;28;20039;-61
2022/10/15 09:35:12;;;;;;;38.15;25.35;;;14.20;99.90;;;;;;5113951;28;20056;-61
2022/10/15 09:37:48;;;;;;;41.38;26.60;;;14.20;99.90;;;;;;5116062;28;20541;-62
2022/10/15 09:40:35;;;;;;;39.72;24.95;;;14.20;99.90;;;;;;5114699;28;20495;-62
2022/10/15 09:43:04;;;;;;;39.28;26.58;;;14.10;99.90;;;;;;5115916;28;20052;-61
2022/10/15 09:45:31;;;;;;;39.60;25.58;;;14.10;99.90;;;;;;5115722;28;20487;-61
2022/10/15 09:48:00;;;;;;;36.38;22.92;;;14.10;99.90;;;;;;5114257;28;20055;-61
2022/10/15 09:50:35;;;;;;;33.67;22.55;;;14.00;99.90;;;;;;5114529;28;20051;-62
2022/10/15 09:53:15;;;;;;;36.85;22.85;;;14.00;99.90;;;;;;5115650;28;20108;-61
2022/10/15 09:55:46;;;;;;;39.47;23.35;;;14.00;99.90;;;;;;5113565;28;20052;-59
2022/10/15 09:58:18;;;;;;;31.15;20.38;;;14.00;99.90;;;;;;5115217;27;20051;-60
2022/10/15 10:00:55;;;;;;;34.67;21.15;;;13.90;99.90;;;;;;5116117;27;20043;-61
2022/10/15 10:03:24;;;;;;;33.75;21.23;;;13.90;99.90;;;;;;5116998;27;20058;-61
2022/10/15 10:05:51;;;;;;;37.22;22.10;;;13.80;99.90;;;;;;5117567;27;20055;-61
2022/10/15 10:08:24;;;;;;;39.83;23.98;;;13.80;99.90;;;;;;5117430;27;20104;-61
2022/10/15 10:10:55;;;;;;;37.25;24.15;;;13.80;99.90;;;;;;5135129;27;20491;-61
2022/10/15 10:13:25;;;;;;;41.55;23.35;;;13.70;99.90;;;;;;5135578;27;20054;-60
2022/10/15 10:15:54;;;;;;;33.05;21.40;;;13.70;99.90;;;;;;5119250;27;20051;-61
2022/10/15 10:18:23;;;;;;;42.55;24.05;;;13.70;99.90;;;;;;5122902;27;20050;-60
2022/10/15 10:20:57;;;;;;;40.88;23.83;;;13.70;99.90;;;;;;5135879;27;20112;-61
2022/10/15 10:23:30;;;;;;;37.97;23.58;;;13.60;99.90;;;;;;5135243;27;20070;-61
2022/10/15 10:25:58;;;;;;;38.90;22.80;;;13.60;99.90;;;;;;5135315;27;20103;-61
2022/10/15 10:28:30;;;;;;;37.05;22.23;;;13.70;99.90;;;;;;5116721;27;20059;-61
2022/10/15 10:31:03;;;;;;;36.25;22.67;;;13.70;99.90;;;;;;5134664;27;20047;-61
2022/10/15 10:33:34;;;;;;;38.20;23.40;;;13.80;99.90;;;;;;5117281;27;20490;-60
2022/10/15 10:36:01;;;;;;;34.72;21.38;;;13.90;99.90;;;;;;5116921;27;20051;-61
2022/10/15 10:38:33;;;;;;;32.90;20.33;;;13.90;99.90;;;;;;5134495;27;20107;-61
2022/10/15 10:41:05;;;;;;;30.98;19.95;;;13.80;99.90;;;;;;5135207;27;20051;-61
2022/10/15 10:43:34;;;;;;;31.02;20.10;;;13.90;99.90;;;;;;5135408;27;20131;-61
2022/10/15 10:46:02;;;;;;;33.95;19.27;;;13.90;99.90;;;;;;5133559;27;20047;-61
2022/10/15 10:48:38;;;;;;;29.52;18.83;;;14.00;99.90;;;;;;5116923;27;20058;-61
2022/10/15 10:51:10;;;;;;;27.95;17.15;;;14.10;99.90;;;;;;5109999;27;20466;-60
2022/10/15 10:53:50;;;;;;;30.10;17.02;;;14.10;99.90;;;;;;5123888;27;20048;-61
2022/10/15 10:56:22;;;;;;;25.27;15.50;;;14.50;99.90;;;;;;5113102;28;20055;-60
2022/10/15 10:58:54;;;;;;;23.17;14.68;;;14.70;99.90;;;;;;5113953;28;20445;-61
2022/10/15 11:01:21;;;;;;;23.83;14.60;;;14.70;99.90;;;;;;5115972;27;20559;-61
2022/10/15 11:03:49;;;;;;;22.05;14.90;;;14.70;99.90;;;;;;5134876;27;20070;-62
2022/10/15 11:06:28;;;;;;;21.25;14.05;;;14.70;99.90;;;;;;5115433;27;20733;-61
2022/10/15 11:09:11;;;;;;;21.90;14.57;;;14.80;99.90;;;;;;5131848;27;20458;-60
2022/10/15 11:11:48;;;;;;;21.02;13.38;;;14.80;99.90;;;;;;5113934;28;20483;-60
2022/10/15 11:14:25;;;;;;;20.15;13.45;;;14.70;99.90;;;;;;5095910;28;20055;-60
2022/10/15 11:17:01;;;;;;;17.38;12.10;;;14.80;99.90;;;;;;5114134;28;20051;-60
2022/10/15 11:19:38;;;;;;;17.00;11.07;;;14.70;99.90;;;;;;5095490;28;20062;-61
2022/10/15 11:22:24;;;;;;;17.65;12.20;;;14.80;99.90;;;;;;5119782;27;20039;-61
2022/10/15 11:24:59;;;;;;;19.75;10.85;;;14.90;99.90;;;;;;5116358;27;20055;-61
2022/10/15 11:27:42;;;;;;;16.73;11.10;;;15.10;99.90;;;;;;5131950;27;20047;-61
2022/10/15 11:30:19;;;;;;;15.35;10.95;;;15.30;99.90;;;;;;5128726;27;20043;-61
2022/10/15 11:32:52;;;;;;;15.73;10.85;;;15.50;99.90;;;;;;5098045;28;20491;-61
2022/10/15 11:35:41;;;;;;;19.88;12.32;;;15.60;99.90;;;;;;5100457;27;20066;-61
2022/10/15 11:38:19;;;;;;;15.85;10.70;;;15.60;99.90;;;;;;5126649;27;20076;-61
2022/10/15 11:41:04;;;;;;;16.98;10.75;;;15.70;99.90;;;;;;5093159;28;20047;-61
2022/10/15 11:43:46;;;;;;;17.17;11.10;;;15.60;99.90;;;;;;5105983;28;20101;-60
2022/10/15 11:46:18;;;;;;;17.25;11.35;;;15.60;99.90;;;;;;5130809;27;20440;-61
2022/10/15 11:48:53;;;;;;;16.65;11.40;;;15.60;99.90;;;;;;5119841;27;20089;-61
2022/10/15 11:51:28;;;;;;;16.50;11.32;;;15.60;99.90;;;;;;5099854;28;20457;-62
2022/10/15 11:54:19;;;;;;;19.13;11.75;;;15.40;99.90;;;;;;5111399;28;20062;-60
2022/10/15 11:56:52;;;;;;;17.00;11.70;;;15.50;99.90;;;;;;5093224;28;20055;-60
2022/10/15 11:59:32;;;;;;;16.48;11.48;;;15.50;99.90;;;;;;5110384;28;20058;-60
2022/10/15 12:02:03;;;;;;;18.02;12.02;;;15.50;99.90;;;;;;5099942;27;20039;-61
2022/10/15 12:04:38;;;;;;;18.10;11.85;;;15.50;99.90;;;;;;5119281;28;20414;-61
2022/10/15 12:07:07;;;;;;;19.50;12.82;;;15.50;99.90;;;;;;5111806;28;20051;-61
2022/10/15 12:09:39;;;;;;;17.67;11.75;;;15.50;99.90;;;;;;5110675;28;20100;-61
2022/10/15 12:12:16;;;;;;;17.33;12.32;;;15.60;99.90;;;;;;5097575;28;20048;-60
2022/10/15 12:14:50;;;;;;;15.98;11.95;;;15.70;99.90;;;;;;5115381;28;20068;-61
2022/10/15 12:17:27;;;;;;;15.88;10.88;;;15.70;99.90;;;;;;5110239;28;20521;-61
2022/10/15 12:20:00;;;;;;;17.73;12.07;;;15.70;99.90;;;;;;5111767;28;20052;-61
2022/10/15 12:22:36;;;;;;;18.15;11.63;;;15.70;99.90;;;;;;5111771;28;20054;-62
2022/10/15 12:25:04;;;;;;;18.10;12.07;;;15.60;99.90;;;;;;5111051;28;20059;-61
2022/10/15 12:27:34;;;;;;;17.08;11.93;;;15.60;99.90;;;;;;5093689;28;20048;-62
2022/10/15 12:30:19;;;;;;;15.55;11.35;;;15.60;99.90;;;;;;5111097;28;20062;-61
2022/10/15 12:32:47;;;;;;;19.88;12.20;;;15.60;99.90;;;;;;5112257;28;20080;-61
2022/10/15 12:35:24;;;;;;;20.58;11.65;;;15.70;99.90;;;;;;5112227;28;20071;-61
2022/10/15 12:37:51;;;;;;;19.85;11.50;;;15.60;99.90;;;;;;5094765;28;20055;-61
2022/10/15 12:40:28;;;;;;;16.05;10.93;;;15.60;99.90;;;;;;5118693;28;20407;-61
2022/10/15 12:42:58;;;;;;;20.77;11.68;;;15.60;99.90;;;;;;5111333;28;20044;-60